createdAt,value
2023-04-14T00:05:33.877Z,8.4
2023-04-14T00:11:26.532Z,8.4
2023-04-14T00:17:19.237Z,8.4
2023-04-14T00:23:11.237Z,8.5
2023-04-14T00:29:02.735Z,8.4
2023-04-14T00:34:39.248Z,8.4
2023-04-14T00:40:31.117Z,8.4
2023-04-14T00:46:22.955Z,8.4
2023-04-14T00:52:14.389Z,8.4
2023-04-14T00:57:51.281Z,8.5
2023-04-14T01:03:13.598Z,8.5
2023-04-14T01:09:21.320Z,8.5
2023-04-14T01:15:13.022Z,8.5
2023-04-14T01:21:04.826Z,8.5
2023-04-14T01:26:40.867Z,8.5
2023-04-14T01:32:33.452Z,8.5
2023-04-14T01:38:24.750Z,8.5
2023-04-14T01:44:16.554Z,8.5
2023-04-14T01:49:54.078Z,8.5
2023-04-14T01:55:46.312Z,8.5
2023-04-14T02:01:38.160Z,8.5
2023-04-14T02:07:30.894Z,8.5
2023-04-14T02:13:22.260Z,8.5
2023-04-14T02:19:13.127Z,8.5
2023-04-14T02:25:04.820Z,8.4
2023-04-14T02:30:56.003Z,8.4
2023-04-14T02:36:46.984Z,8.4
2023-04-14T02:42:38.386Z,8.4
2023-04-14T02:48:29.744Z,8.3
2023-04-14T02:54:21.239Z,8.3
2023-04-14T03:00:13.195Z,8.3
2023-04-14T03:06:05.734Z,8.3
2023-04-14T03:11:56.859Z,8.2
2023-04-14T03:17:32.873Z,8.2
2023-04-14T03:23:08.784Z,8.1
2023-04-14T03:29:01.106Z,8.1
2023-04-14T03:34:52.921Z,8.1
2023-04-14T03:40:45.006Z,8.1
2023-04-14T03:46:38.346Z,8.1
2023-04-14T03:52:32.756Z,8.1
2023-04-14T03:58:26.721Z,8
2023-04-14T04:04:21.036Z,8
2023-04-14T04:10:13.538Z,8
2023-04-14T04:16:05.978Z,7.9
2023-04-14T04:21:57.975Z,7.9
2023-04-14T04:28:04.479Z,7.9
2023-04-14T04:33:56.738Z,7.9
2023-04-14T04:39:48.722Z,7.8
2023-04-14T04:45:24.603Z,7.8
2023-04-14T04:51:00.589Z,7.8
2023-04-14T04:56:36.319Z,7.9
2023-04-14T05:01:59.823Z,7.9
2023-04-14T05:07:36.288Z,8.1
2023-04-14T05:13:14.943Z,8.2
2023-04-14T05:18:51.753Z,8.3
2023-04-14T05:24:27.437Z,8.5
2023-04-14T05:30:41.860Z,8.8
2023-04-14T05:36:06.352Z,9.1
2023-04-14T05:41:42.582Z,9.5
2023-04-14T05:47:34.838Z,9.9
2023-04-14T05:53:11.607Z,10.4
2023-04-14T05:58:48.355Z,11.1
2023-04-14T06:04:46.953Z,11.8
2023-04-14T06:10:23.178Z,12.3
2023-04-14T06:16:14.278Z,12.9
2023-04-14T06:21:35.740Z,13.4
2023-04-14T06:27:27.284Z,14.1
2023-04-14T06:33:04.201Z,14.9
2023-04-14T06:39:08.541Z,15.8
2023-04-14T06:45:00.160Z,16.8
2023-04-14T06:50:53.332Z,17.6
2023-04-14T06:56:45.470Z,18.5
2023-04-14T07:02:38.078Z,19.4
2023-04-14T07:08:31.687Z,20.8
2023-04-14T07:14:23.844Z,22.8
2023-04-14T07:20:02.176Z,24.7
2023-04-14T07:25:53.297Z,34.1
2023-04-14T07:31:58.677Z,33.4
2023-04-14T07:38:02.404Z,32.7
2023-04-14T07:43:38.126Z,32.7
2023-04-14T07:49:30.784Z,39.9
2023-04-14T07:55:24.122Z,41.7
2023-04-14T08:01:07.046Z,43.1
2023-04-14T08:07:00.586Z,44.1
2023-04-14T08:12:36.510Z,44.9
2023-04-14T08:17:57.279Z,45.7
2023-04-14T08:23:34.005Z,46.4
2023-04-14T08:29:10.817Z,46.9
2023-04-14T08:36:00.248Z,47.4
2023-04-14T08:41:54.502Z,47.9
2023-04-14T08:47:46.996Z,48.4
2023-04-14T08:53:24.744Z,49.4
2023-04-14T08:59:16.704Z,50.4
2023-04-14T09:05:12.283Z,51.3
2023-04-14T09:11:04.400Z,52.3
2023-04-14T09:16:55.266Z,53
2023-04-14T09:24:42.628Z,54.8
2023-04-14T09:30:18.317Z,55.9
2023-04-14T09:35:54.803Z,56.4
2023-04-14T09:41:46.094Z,56.8
2023-04-14T09:47:22.368Z,58.2
2023-04-14T09:53:13.908Z,59.1
2023-04-14T09:59:08.433Z,60
2023-04-14T10:05:02.153Z,60.9
2023-04-14T10:10:38.151Z,61.7
2023-04-14T10:16:30.089Z,62
2023-04-14T10:22:21.618Z,62.8
2023-04-14T10:28:15.061Z,62.4
2023-04-14T10:34:09.479Z,60.6
2023-04-14T10:39:45.200Z,58.5
2023-04-14T10:45:36.448Z,54.8
2023-04-14T10:51:28.396Z,49.4
2023-04-14T10:57:18.133Z,45.5
2023-04-14T11:03:13.738Z,42.1
2023-04-14T11:09:06.425Z,38.6
2023-04-14T11:14:44.501Z,35.8
2023-04-14T11:20:47.505Z,33.1
2023-04-14T11:26:38.635Z,30.9
2023-04-14T11:32:32.300Z,29.2
2023-04-14T11:44:00.778Z,26.8
2023-04-14T11:49:51.558Z,25.9
2023-04-14T11:55:28.182Z,24.8
2023-04-14T12:01:04.929Z,23.8
2023-04-14T12:06:43.290Z,22.8
2023-04-14T12:12:37.896Z,21.9
2023-04-14T12:17:59.321Z,21.2
2023-04-14T12:23:20.187Z,20.6
2023-04-14T12:29:12.201Z,20.1
2023-04-14T12:35:05.673Z,19.8
2023-04-14T12:40:57.095Z,20.3
2023-04-14T12:46:33.406Z,23.5
2023-04-14T12:52:26.136Z,31.1
2023-04-14T12:58:18.462Z,38.3
2023-04-14T13:04:13.929Z,43.7
2023-04-14T13:10:07.991Z,48.1
2023-04-14T13:16:53.962Z,45
2023-04-14T13:22:48.528Z,44.4
2023-04-14T13:28:40.572Z,50.4
2023-04-14T13:34:17.801Z,49.9
2023-04-14T13:40:10.674Z,46.7
2023-04-14T13:46:04.792Z,43.9
2023-04-14T13:51:59.867Z,40.7
2023-04-14T13:57:52.977Z,37.9
2023-04-14T14:03:49.074Z,35.7
2023-04-14T14:09:43.935Z,33.7
2023-04-14T14:15:36.382Z,31.9
2023-04-14T14:21:22.849Z,30.8
2023-04-14T14:27:11.799Z,29.8
2023-04-14T14:33:07.261Z,28.9
2023-04-14T14:39:00.130Z,28.3
2023-04-14T14:44:54.532Z,27.7
2023-04-14T14:51:00.064Z,27.1
2023-04-14T14:57:01.093Z,26.9
2023-04-14T15:02:37.985Z,26.8
2023-04-14T15:08:31.359Z,26.7
2023-04-14T15:14:23.392Z,26.8
2023-04-14T15:20:15.361Z,26.8
2023-04-14T15:26:07.001Z,26.4
2023-04-14T15:31:58.645Z,26.1
2023-04-14T15:37:50.614Z,23
2023-04-14T15:43:43.020Z,19.5
2023-04-14T15:49:38.119Z,18.1
2023-04-14T15:55:48.167Z,17.6
2023-04-14T16:01:39.920Z,16.6
2023-04-14T16:07:33.274Z,16.4
2023-04-14T16:13:26.557Z,16.2
2023-04-14T16:19:19.852Z,16.2
2023-04-14T16:25:12.020Z,16.2
2023-04-14T16:31:04.053Z,16.1
2023-04-14T16:36:55.907Z,16.1
2023-04-14T16:42:47.671Z,16.1
2023-04-14T16:48:40.024Z,16.1
2023-04-14T16:54:32.192Z,16
2023-04-14T17:00:24.133Z,15.9
2023-04-14T17:06:21.776Z,15.8
2023-04-14T17:12:13.537Z,15.6
2023-04-14T17:18:12.995Z,15.5
2023-04-14T17:24:06.155Z,15.4
2023-04-14T17:29:58.014Z,15.4
2023-04-14T17:35:49.790Z,15.2
2023-04-14T17:41:41.416Z,14.9
2023-04-14T17:47:33.593Z,14.7
2023-04-14T17:53:11.201Z,14.3
2023-04-14T17:59:03.196Z,13.9
2023-04-14T18:04:57.191Z,13.4
2023-04-14T18:10:48.369Z,13.1
2023-04-14T18:16:39.740Z,12.8
2023-04-14T18:22:31.312Z,12.4
2023-04-14T18:28:48.771Z,12
2023-04-14T18:34:41.024Z,11.8
2023-04-14T18:40:32.717Z,11.5
2023-04-14T18:46:24.254Z,11.3
2023-04-14T18:52:00.296Z,11.1
2023-04-14T18:58:02.675Z,10.9
2023-04-14T19:03:39.807Z,10.8
2023-04-14T19:09:31.390Z,10.6
2023-04-14T19:15:19.375Z,10.4
2023-04-14T19:20:55.777Z,10.3
2023-04-14T19:26:32.229Z,10.2
2023-04-14T19:32:09.892Z,10.1
2023-04-14T19:37:46.652Z,10
2023-04-14T19:43:38.304Z,9.9
2023-04-14T19:49:26.835Z,9.8
2023-04-14T19:55:18.402Z,9.7
2023-04-14T20:01:11.482Z,9.6
2023-04-14T20:07:35.427Z,9.4
2023-04-14T20:13:27.054Z,9.1
2023-04-14T20:19:19.051Z,8.9
2023-04-14T20:25:10.271Z,8.6
2023-04-14T20:31:02.592Z,8.4
2023-04-14T20:36:54.217Z,8.1
2023-04-14T20:42:45.378Z,7.9
2023-04-14T20:48:37.286Z,7.6
2023-04-14T20:54:13.407Z,7.4
2023-04-14T21:00:03.941Z,7.1
2023-04-14T21:05:57.666Z,6.9
2023-04-14T21:15:31.587Z,6.7
2023-04-14T21:21:45.712Z,6.4
2023-04-14T21:27:36.862Z,6.3
2023-04-14T21:33:28.002Z,6.1
2023-04-14T21:39:04.860Z,6
2023-04-14T21:44:40.823Z,5.9
2023-04-14T21:50:33.197Z,5.9
2023-04-14T21:56:47.139Z,5.8
2023-04-14T22:03:07.022Z,5.8
2023-04-14T22:09:09.625Z,5.7
2023-04-14T22:15:02.828Z,5.6
2023-04-14T22:20:39.115Z,5.6
2023-04-14T22:26:14.693Z,5.6
2023-04-14T22:31:51.947Z,5.6
2023-04-14T22:37:28.334Z,5.6
2023-04-14T22:43:19.753Z,5.6
2023-04-14T22:49:12.273Z,5.6
2023-04-14T22:55:10.451Z,5.6
2023-04-14T23:01:09.240Z,5.5
2023-04-14T23:07:06.053Z,5.5
2023-04-14T23:12:58.071Z,5.4
2023-04-14T23:18:48.356Z,5.4
2023-04-14T23:24:39.884Z,5.3
2023-04-14T23:30:16.604Z,5.3
2023-04-14T23:36:07.900Z,5.3
2023-04-14T23:41:59.786Z,5.2
2023-04-14T23:47:51.551Z,5.1
2023-04-14T23:54:41.186Z,5.1
